createdAt,value
2018-11-27T00:00:25.321Z,4.30
2018-11-27T00:02:57.443Z,4.20
2018-11-27T00:05:26.086Z,4.20
2018-11-27T00:07:54.710Z,4.20
2018-11-27T00:10:23.138Z,4.20
2018-11-27T00:12:52.066Z,4.20
2018-11-27T00:15:20.618Z,4.30
2018-11-27T00:17:49.114Z,4.30
2018-11-27T00:20:17.604Z,4.30
2018-11-27T00:22:46.545Z,4.50
2018-11-27T00:25:17.287Z,4.40
2018-11-27T00:27:45.839Z,4.20
2018-11-27T00:30:16.124Z,4.10
2018-11-27T00:32:44.907Z,4.10
2018-11-27T00:35:14.700Z,4.30
2018-11-27T00:37:43.494Z,4.40
2018-11-27T00:40:15.166Z,4.40
2018-11-27T00:42:43.704Z,4.20
2018-11-27T00:45:13.249Z,4.20
2018-11-27T00:47:42.566Z,4.20
2018-11-27T00:50:27.936Z,4.30
2018-11-27T00:52:56.432Z,4.20
2018-11-27T00:55:25.371Z,4.30
2018-11-27T00:57:53.963Z,4.30
2018-11-27T01:00:24.403Z,4.40
2018-11-27T01:02:53.024Z,4.50
2018-11-27T01:05:23.286Z,4.50
2018-11-27T01:07:52.083Z,4.40
2018-11-27T01:10:23.783Z,4.40
2018-11-27T01:12:52.385Z,4.40
2018-11-27T01:15:20.913Z,4.30
2018-11-27T01:17:59.336Z,4.30
2018-11-27T01:20:28.705Z,4.30
2018-11-27T01:22:57.183Z,4.30
2018-11-27T01:25:25.691Z,4.30
2018-11-27T01:27:54.170Z,4.20
2018-11-27T01:30:23.537Z,4.30
2018-11-27T01:32:52.197Z,4.30
2018-11-27T01:35:22.452Z,4.20
2018-11-27T01:37:52.078Z,4.20
2018-11-27T01:40:22.436Z,4.10
2018-11-27T01:42:52.027Z,4.20
2018-11-27T01:45:21.221Z,4.10
2018-11-27T01:47:49.943Z,4.30
2018-11-27T01:50:19.260Z,4.20
2018-11-27T01:52:47.932Z,4.20
2018-11-27T01:55:18.599Z,4.30
2018-11-27T01:57:47.132Z,4.20
2018-11-27T02:00:22.459Z,4.20
2018-11-27T02:02:51.428Z,4.30
2018-11-27T02:05:19.975Z,4.50
2018-11-27T02:07:48.485Z,4.50
2018-11-27T02:10:17.276Z,4.40
2018-11-27T02:12:46.850Z,4.50
2018-11-27T02:15:17.143Z,4.40
2018-11-27T02:17:46.039Z,4.30
2018-11-27T02:20:14.809Z,4.20
2018-11-27T02:22:43.375Z,4.30
2018-11-27T02:25:20.388Z,4.10
2018-11-27T02:27:48.922Z,4.30
2018-11-27T02:30:18.567Z,4.30
2018-11-27T02:32:47.135Z,4.30
2018-11-27T02:35:18.532Z,4.40
2018-11-27T02:37:48.036Z,4.50
2018-11-27T02:40:17.455Z,4.40
2018-11-27T02:42:45.995Z,4.30
2018-11-27T02:45:17.297Z,4.30
2018-11-27T02:47:46.464Z,4.40
2018-11-27T02:50:16.293Z,4.50
2018-11-27T02:52:44.782Z,4.60
2018-11-27T02:55:14.546Z,4.70
2018-11-27T02:57:43.098Z,4.60
2018-11-27T03:00:12.645Z,4.50
2018-11-27T03:02:41.265Z,4.60
2018-11-27T03:05:11.533Z,4.50
2018-11-27T03:07:40.061Z,4.50
2018-11-27T03:10:10.642Z,4.60
2018-11-27T03:12:39.226Z,4.50
2018-11-27T03:15:10.642Z,4.40
2018-11-27T03:17:39.171Z,4.40
2018-11-27T03:20:09.406Z,4.40
2018-11-27T03:22:38.150Z,4.40
2018-11-27T03:25:08.891Z,4.30
2018-11-27T03:27:37.729Z,4.30
2018-11-27T03:30:09.444Z,4.40
2018-11-27T03:32:37.934Z,4.50
2018-11-27T03:35:08.463Z,4.30
2018-11-27T03:37:37.179Z,4.30
2018-11-27T03:40:08.847Z,4.30
2018-11-27T03:42:37.310Z,4.40
2018-11-27T03:45:06.890Z,4.40
2018-11-27T03:47:35.374Z,4.50
2018-11-27T03:50:05.027Z,4.40
2018-11-27T03:52:33.493Z,4.20
2018-11-27T03:55:02.026Z,4.30
2018-11-27T03:57:30.544Z,4.30
2018-11-27T03:59:59.314Z,4.40
2018-11-27T04:02:27.782Z,4.30
2018-11-27T04:04:56.303Z,4.40
2018-11-27T04:07:24.767Z,4.30
2018-11-27T04:09:53.312Z,4.40
2018-11-27T04:12:21.795Z,4.40
2018-11-27T04:14:50.296Z,4.20
2018-11-27T04:17:20.470Z,4.20
2018-11-27T04:19:49.061Z,4.20
2018-11-27T04:22:17.531Z,4.30
2018-11-27T04:24:46.042Z,4.10
2018-11-27T04:27:14.523Z,4.30
2018-11-27T04:29:43.723Z,4.30
2018-11-27T04:32:12.226Z,4.10
2018-11-27T04:34:41.089Z,4.10
2018-11-27T04:37:09.590Z,4.20
2018-11-27T04:39:38.046Z,4.30
2018-11-27T04:42:06.591Z,4.20
2018-11-27T04:44:35.054Z,4.20
2018-11-27T04:47:03.570Z,4.20
2018-11-27T04:49:32.322Z,4.10
2018-11-27T04:52:01.503Z,4.00
2018-11-27T04:54:29.992Z,4.00
2018-11-27T04:56:58.758Z,4.00
2018-11-27T04:59:27.312Z,4.10
2018-11-27T05:02:02.360Z,4.00
2018-11-27T05:04:30.847Z,3.80
2018-11-27T05:06:59.353Z,3.90
2018-11-27T05:09:27.810Z,3.90
2018-11-27T05:11:56.298Z,3.90
2018-11-27T05:14:24.792Z,4.10
2018-11-27T05:16:53.293Z,4.20
2018-11-27T05:19:21.794Z,4.20
2018-11-27T05:21:50.277Z,4.20
2018-11-27T05:24:18.749Z,4.10
2018-11-27T05:26:47.270Z,4.10
2018-11-27T05:29:15.746Z,4.00
2018-11-27T05:31:44.270Z,3.80
2018-11-27T05:34:12.743Z,3.70
2018-11-27T05:36:41.233Z,3.70
2018-11-27T05:39:09.827Z,3.60
2018-11-27T05:41:38.339Z,3.70
2018-11-27T05:44:08.590Z,3.70
2018-11-27T05:46:37.083Z,3.70
2018-11-27T05:49:05.685Z,3.80
2018-11-27T05:51:34.173Z,3.70
2018-11-27T05:54:02.727Z,3.90
2018-11-27T05:56:31.213Z,3.70
2018-11-27T05:58:59.737Z,3.80
2018-11-27T06:01:28.206Z,3.80
2018-11-27T06:03:56.738Z,3.70
2018-11-27T06:06:25.219Z,3.80
2018-11-27T06:08:53.717Z,3.70
2018-11-27T06:11:22.184Z,3.70
2018-11-27T06:13:50.966Z,3.80
2018-11-27T06:16:19.429Z,3.80
2018-11-27T06:18:47.917Z,3.60
2018-11-27T06:21:16.393Z,3.60
2018-11-27T06:23:44.864Z,3.60
2018-11-27T06:26:13.318Z,3.90
2018-11-27T06:28:41.818Z,3.80
2018-11-27T06:31:10.529Z,3.80
2018-11-27T06:33:39.023Z,3.80
2018-11-27T06:36:07.554Z,3.70
2018-11-27T06:38:36.478Z,3.80
2018-11-27T06:41:05.427Z,3.90
2018-11-27T06:43:33.923Z,4.00
2018-11-27T06:46:02.399Z,4.00
2018-11-27T06:48:30.905Z,4.10
2018-11-27T06:50:59.447Z,4.10
2018-11-27T06:53:27.978Z,4.10
2018-11-27T06:55:56.495Z,4.20
2018-11-27T06:58:25.045Z,4.20
2018-11-27T07:00:53.586Z,4.20
2018-11-27T07:03:22.129Z,4.10
2018-11-27T07:05:50.594Z,4.10
2018-11-27T07:08:19.342Z,4.10
2018-11-27T07:10:47.806Z,4.10
2018-11-27T07:13:18.918Z,3.90
2018-11-27T07:15:48.108Z,3.90
2018-11-27T07:18:16.647Z,4.00
2018-11-27T07:20:45.214Z,3.90
2018-11-27T07:23:13.722Z,3.90
2018-11-27T07:25:42.222Z,4.00
2018-11-27T07:28:10.723Z,4.00
2018-11-27T07:30:42.969Z,3.80
2018-11-27T07:33:12.019Z,4.00
2018-11-27T07:35:40.596Z,3.90
2018-11-27T07:38:09.115Z,4.10
2018-11-27T07:40:37.678Z,4.20
2018-11-27T07:43:10.307Z,4.00
2018-11-27T07:45:39.306Z,4.10
2018-11-27T07:48:08.694Z,4.10
2018-11-27T07:50:37.501Z,4.10
2018-11-27T07:53:06.533Z,3.90
2018-11-27T07:55:35.074Z,4.00
2018-11-27T07:58:04.393Z,4.00
2018-11-27T08:00:33.039Z,3.90
2018-11-27T08:03:01.610Z,4.00
2018-11-27T08:05:37.359Z,4.00
2018-11-27T08:08:07.262Z,4.00
2018-11-27T08:10:35.830Z,3.90
2018-11-27T08:13:04.356Z,3.80
2018-11-27T08:15:33.152Z,3.90
2018-11-27T08:18:01.640Z,4.00
2018-11-27T08:20:31.484Z,4.00
2018-11-27T08:23:00.372Z,4.00
2018-11-27T08:25:28.950Z,4.00
2018-11-27T08:27:57.894Z,3.90
2018-11-27T08:30:26.443Z,4.10
2018-11-27T08:32:55.612Z,4.10
2018-11-27T08:35:25.444Z,4.10
2018-11-27T08:37:56.671Z,4.10
2018-11-27T08:40:26.527Z,4.10
2018-11-27T08:42:55.261Z,4.10
2018-11-27T08:45:24.555Z,4.20
2018-11-27T08:47:54.060Z,4.30
2018-11-27T08:50:24.520Z,4.10
2018-11-27T08:52:56.949Z,4.10
2018-11-27T08:55:26.882Z,4.20
2018-11-27T08:57:55.592Z,4.40
2018-11-27T09:00:25.147Z,4.30
2018-11-27T09:02:53.959Z,4.30
2018-11-27T09:05:22.471Z,4.10
2018-11-27T09:07:51.007Z,4.10
2018-11-27T09:10:20.867Z,4.10
2018-11-27T09:12:49.435Z,4.30
2018-11-27T09:15:18.929Z,4.30
2018-11-27T09:17:53.847Z,4.30
2018-11-27T09:20:22.671Z,4.30
2018-11-27T09:22:51.169Z,4.30
2018-11-27T09:25:19.673Z,4.40
2018-11-27T09:27:48.197Z,4.30
2018-11-27T09:30:21.086Z,4.20
2018-11-27T09:32:49.614Z,4.30
2018-11-27T09:35:18.093Z,4.20
2018-11-27T09:37:46.609Z,4.40
2018-11-27T09:40:16.605Z,4.20
2018-11-27T09:42:45.432Z,4.30
2018-11-27T09:45:15.968Z,4.20
2018-11-27T09:47:45.302Z,4.30
2018-11-27T09:50:14.605Z,4.30
2018-11-27T09:52:43.160Z,4.40
2018-11-27T09:55:16.157Z,4.40
2018-11-27T09:57:44.958Z,4.60
2018-11-27T10:00:30.566Z,4.60
2018-11-27T10:03:02.534Z,4.60
2018-11-27T10:05:31.075Z,4.40
2018-11-27T10:07:59.570Z,4.30
2018-11-27T10:10:28.077Z,4.30
2018-11-27T10:12:56.619Z,4.40
2018-11-27T10:15:27.264Z,4.30
2018-11-27T10:17:57.855Z,4.40
2018-11-27T10:20:27.654Z,4.50
2018-11-27T10:22:56.155Z,4.50
2018-11-27T10:25:24.695Z,4.50
2018-11-27T10:27:53.532Z,4.50
2018-11-27T10:30:23.281Z,4.40
2018-11-27T10:32:52.938Z,4.50
2018-11-27T10:35:24.500Z,4.60
2018-11-27T10:37:53.060Z,4.50
2018-11-27T10:40:21.551Z,4.50
2018-11-27T10:42:50.529Z,4.50
2018-11-27T10:45:20.285Z,4.30
2018-11-27T10:47:49.930Z,4.40
2018-11-27T10:50:18.955Z,4.50
2018-11-27T10:52:49.402Z,4.50
2018-11-27T10:55:18.968Z,4.50
2018-11-27T10:57:47.623Z,4.60
2018-11-27T11:00:24.244Z,4.60
2018-11-27T11:02:58.432Z,4.50
2018-11-27T11:05:35.067Z,4.50
2018-11-27T11:08:03.640Z,4.50
2018-11-27T11:10:32.156Z,4.40
2018-11-27T11:13:00.718Z,4.40
2018-11-27T11:15:29.576Z,4.30
2018-11-27T11:17:58.008Z,4.20
2018-11-27T11:20:26.491Z,4.30
2018-11-27T11:22:55.017Z,4.30
2018-11-27T11:25:24.595Z,4.50
2018-11-27T11:27:57.480Z,4.40
2018-11-27T11:30:26.031Z,4.30
2018-11-27T11:32:54.546Z,4.40
2018-11-27T11:35:23.082Z,4.40
2018-11-27T11:37:51.647Z,4.30
2018-11-27T11:40:23.799Z,4.30
2018-11-27T11:42:53.653Z,4.20
2018-11-27T11:45:22.197Z,4.30
2018-11-27T11:47:51.067Z,4.40
2018-11-27T11:50:22.624Z,4.50
2018-11-27T11:52:53.857Z,4.50
2018-11-27T11:55:22.423Z,4.40
2018-11-27T11:57:51.245Z,4.50
2018-11-27T12:00:41.962Z,4.40
2018-11-27T12:03:10.867Z,4.50
2018-11-27T12:05:39.427Z,4.50
2018-11-27T12:08:08.882Z,4.50
2018-11-27T12:10:38.078Z,4.60
2018-11-27T12:13:08.369Z,4.60
2018-11-27T12:15:36.983Z,4.60
2018-11-27T12:18:06.159Z,4.60
2018-11-27T12:20:34.886Z,4.70
2018-11-27T12:23:03.522Z,4.70
2018-11-27T12:25:32.218Z,4.60
2018-11-27T12:28:00.726Z,4.70
2018-11-27T12:30:29.253Z,4.60
2018-11-27T12:32:57.775Z,4.60
2018-11-27T12:35:26.636Z,4.60
2018-11-27T12:37:55.446Z,4.80
2018-11-27T12:40:25.680Z,4.70
2018-11-27T12:42:54.657Z,4.60
2018-11-27T12:45:26.354Z,4.60
2018-11-27T12:47:55.592Z,4.70
2018-11-27T12:50:30.998Z,4.70
2018-11-27T12:53:00.743Z,4.70
2018-11-27T12:55:28.114Z,4.80
2018-11-27T12:57:56.698Z,4.80
2018-11-27T13:00:25.950Z,4.60
2018-11-27T13:02:54.775Z,4.50
2018-11-27T13:05:28.458Z,4.30
2018-11-27T13:08:00.604Z,4.20
2018-11-27T13:10:29.112Z,4.50
2018-11-27T13:12:57.695Z,4.60
2018-11-27T13:15:26.204Z,4.50
2018-11-27T13:17:54.833Z,4.40
2018-11-27T13:20:23.337Z,4.50
2018-11-27T13:22:52.387Z,4.30
2018-11-27T13:25:22.323Z,4.40
2018-11-27T13:27:52.234Z,4.60
2018-11-27T13:30:32.853Z,4.70
2018-11-27T13:33:06.346Z,4.70
2018-11-27T13:35:35.589Z,4.60
2018-11-27T13:38:04.133Z,4.50
2018-11-27T13:40:32.618Z,4.40
2018-11-27T13:43:01.727Z,4.50
2018-11-27T13:45:30.246Z,4.60
2018-11-27T13:47:58.834Z,4.60
2018-11-27T13:50:27.568Z,4.30
2018-11-27T13:52:56.079Z,4.40
2018-11-27T13:55:24.615Z,4.50
2018-11-27T13:57:53.182Z,4.50
2018-11-27T14:00:21.738Z,4.60
2018-11-27T14:02:54.666Z,4.60
2018-11-27T14:05:24.478Z,4.30
2018-11-27T14:07:53.028Z,4.20
2018-11-27T14:10:21.874Z,4.40
2018-11-27T14:12:50.389Z,4.30
2018-11-27T14:15:22.735Z,4.30
2018-11-27T14:17:52.092Z,4.40
2018-11-27T14:20:20.634Z,4.30
2018-11-27T14:22:49.850Z,4.30
2018-11-27T14:25:18.368Z,4.20
2018-11-27T14:27:48.265Z,4.30
2018-11-27T14:30:22.396Z,4.20
2018-11-27T14:32:51.263Z,4.30
2018-11-27T14:35:21.144Z,4.20
2018-11-27T14:37:51.080Z,4.20
2018-11-27T14:40:23.179Z,4.40
2018-11-27T14:42:51.686Z,4.40
2018-11-27T14:45:22.617Z,4.10
2018-11-27T14:47:52.233Z,4.00
2018-11-27T14:50:20.828Z,4.10
2018-11-27T14:52:49.368Z,4.00
2018-11-27T14:55:20.404Z,4.00
2018-11-27T14:57:49.185Z,4.00
2018-11-27T15:00:19.018Z,4.00
2018-11-27T15:02:47.555Z,4.10
2018-11-27T15:05:21.889Z,4.00
2018-11-27T15:07:50.402Z,4.10
2018-11-27T15:10:19.038Z,4.10
2018-11-27T15:12:47.573Z,4.20
2018-11-27T15:15:16.105Z,4.10
2018-11-27T15:17:44.651Z,4.10
2018-11-27T15:20:18.241Z,4.20
2018-11-27T15:22:46.770Z,4.00
2018-11-27T15:25:15.358Z,3.90
2018-11-27T15:27:43.996Z,4.00
2018-11-27T15:30:15.571Z,4.00
2018-11-27T15:32:44.164Z,3.90
2018-11-27T15:35:14.730Z,3.70
2018-11-27T15:37:43.279Z,3.90
2018-11-27T15:40:15.961Z,3.80
2018-11-27T15:42:44.480Z,3.70
2018-11-27T15:45:17.403Z,3.90
2018-11-27T15:47:46.537Z,4.00
2018-11-27T15:50:15.104Z,3.90
2018-11-27T15:52:43.926Z,3.90
2018-11-27T15:55:30.586Z,4.00
2018-11-27T15:58:02.070Z,4.00
2018-11-27T16:00:33.655Z,4.00
2018-11-27T16:03:02.233Z,4.00
2018-11-27T16:05:30.777Z,4.10
2018-11-27T16:07:59.503Z,4.00
2018-11-27T16:10:28.008Z,4.00
2018-11-27T16:12:57.446Z,3.90
2018-11-27T16:15:25.918Z,3.90
2018-11-27T16:17:54.764Z,4.00
2018-11-27T16:20:23.326Z,4.20
2018-11-27T16:22:52.649Z,4.10
2018-11-27T16:25:25.816Z,4.20
2018-11-27T16:27:55.045Z,4.10
2018-11-27T16:30:24.687Z,4.00
2018-11-27T16:32:53.510Z,3.90
2018-11-27T16:35:22.004Z,3.90
2018-11-27T16:37:53.029Z,3.90
2018-11-27T16:40:23.437Z,3.80
2018-11-27T16:42:53.060Z,3.80
2018-11-27T16:45:23.043Z,3.80
2018-11-27T16:47:51.838Z,3.70
2018-11-27T16:50:20.432Z,3.70
2018-11-27T16:52:49.392Z,3.80
2018-11-27T16:55:19.412Z,3.90
2018-11-27T16:57:48.453Z,3.90
2018-11-27T17:00:18.937Z,3.90
2018-11-27T17:02:48.093Z,3.80
2018-11-27T17:05:16.592Z,3.80
2018-11-27T17:07:45.328Z,3.70
2018-11-27T17:10:15.004Z,3.70
2018-11-27T17:12:44.057Z,3.40
2018-11-27T17:15:14.646Z,3.50
2018-11-27T17:17:43.229Z,3.50
2018-11-27T17:20:15.258Z,3.60
2018-11-27T17:22:43.738Z,3.60
2018-11-27T17:25:12.291Z,3.70
2018-11-27T17:27:41.897Z,3.70
2018-11-27T17:30:15.819Z,3.80
2018-11-27T17:32:44.521Z,3.80
2018-11-27T17:35:13.011Z,3.80
2018-11-27T17:37:41.732Z,3.80
2018-11-27T17:40:11.701Z,3.80
2018-11-27T17:42:40.228Z,3.90
2018-11-27T17:45:13.085Z,3.80
2018-11-27T17:47:41.729Z,3.70
2018-11-27T17:50:12.546Z,3.60
2018-11-27T17:52:41.059Z,3.70
2018-11-27T17:55:10.793Z,3.50
2018-11-27T17:57:39.357Z,3.50
2018-11-27T18:00:17.945Z,3.50
2018-11-27T18:02:51.006Z,3.50
2018-11-27T18:05:19.655Z,3.60
2018-11-27T18:07:48.137Z,3.80
2018-11-27T18:10:16.918Z,4.10
2018-11-27T18:12:45.451Z,3.90
2018-11-27T18:15:16.404Z,3.70
2018-11-27T18:17:45.130Z,3.80
2018-11-27T18:20:14.270Z,3.80
2018-11-27T18:22:42.790Z,3.80
2018-11-27T18:25:16.664Z,3.70
2018-11-27T18:27:46.574Z,3.60
2018-11-27T18:30:16.632Z,3.50
2018-11-27T18:32:45.218Z,3.40
2018-11-27T18:35:15.763Z,3.60
2018-11-27T18:37:44.685Z,4.00
2018-11-27T18:40:14.119Z,4.10
2018-11-27T18:42:42.909Z,4.00
2018-11-27T18:45:23.826Z,4.00
2018-11-27T18:47:52.633Z,4.00
2018-11-27T18:50:22.217Z,3.90
2018-11-27T18:52:50.731Z,3.90
2018-11-27T18:55:19.201Z,3.90
2018-11-27T18:57:48.331Z,3.80
2018-11-27T19:00:35.146Z,4.10
2018-11-27T19:03:03.690Z,4.20
2018-11-27T19:05:32.178Z,4.20
2018-11-27T19:08:01.518Z,4.00
2018-11-27T19:10:31.407Z,3.90
2018-11-27T19:12:59.981Z,3.80
2018-11-27T19:15:43.937Z,3.70
2018-11-27T19:18:27.956Z,3.70
2018-11-27T19:20:59.152Z,3.80
2018-11-27T19:23:27.770Z,3.70
2018-11-27T19:25:56.573Z,3.60
2018-11-27T19:28:25.101Z,3.50
2018-11-27T19:30:53.589Z,3.50
2018-11-27T19:33:22.102Z,3.70
2018-11-27T19:35:50.590Z,3.90
2018-11-27T19:38:20.024Z,4.10
2018-11-27T19:40:48.522Z,4.10
2018-11-27T19:43:17.030Z,3.90
2018-11-27T19:45:45.510Z,3.80
2018-11-27T19:48:14.967Z,3.80
2018-11-27T19:50:45.403Z,3.90
2018-11-27T19:53:15.115Z,3.90
2018-11-27T19:55:43.953Z,3.90
2018-11-27T19:58:12.737Z,3.80
2018-11-27T20:00:41.489Z,3.70
2018-11-27T20:03:11.369Z,3.70
2018-11-27T20:05:39.958Z,3.70
2018-11-27T20:08:15.178Z,3.70
2018-11-27T20:10:44.544Z,3.80
2018-11-27T20:13:13.402Z,3.70
2018-11-27T20:15:42.214Z,3.70
2018-11-27T20:18:11.428Z,3.70
2018-11-27T20:20:39.939Z,3.80
2018-11-27T20:23:09.555Z,4.10
2018-11-27T20:25:38.028Z,4.10
2018-11-27T20:28:08.012Z,3.90
2018-11-27T20:30:37.547Z,3.90
2018-11-27T20:33:06.912Z,3.90
2018-11-27T20:35:35.781Z,3.90
2018-11-27T20:38:06.862Z,4.10
2018-11-27T20:40:35.983Z,4.10
2018-11-27T20:43:04.590Z,4.00
2018-11-27T20:45:33.168Z,4.00
2018-11-27T20:48:23.901Z,3.90
2018-11-27T20:50:52.706Z,4.10
2018-11-27T20:53:21.193Z,3.90
2018-11-27T20:55:50.435Z,3.80
2018-11-27T20:58:19.226Z,3.90
2018-11-27T21:00:49.208Z,4.00
2018-11-27T21:03:17.749Z,3.90
2018-11-27T21:05:46.386Z,3.80
2018-11-27T21:08:15.242Z,3.80
2018-11-27T21:10:43.789Z,3.80
2018-11-27T21:13:13.115Z,3.70
2018-11-27T21:15:42.854Z,3.90
2018-11-27T21:18:12.257Z,4.00
2018-11-27T21:20:41.418Z,4.00
2018-11-27T21:23:09.942Z,3.90
2018-11-27T21:25:38.802Z,3.90
2018-11-27T21:28:11.020Z,4.00
2018-11-27T21:30:39.885Z,3.90
2018-11-27T21:33:08.425Z,4.00
2018-11-27T21:35:37.210Z,3.90
2018-11-27T21:38:06.110Z,3.80
2018-11-27T21:40:41.716Z,3.80
2018-11-27T21:43:10.214Z,3.70
2018-11-27T21:45:38.951Z,3.80
2018-11-27T21:48:07.979Z,3.80
2018-11-27T21:50:39.514Z,3.80
2018-11-27T21:53:08.038Z,3.90
2018-11-27T21:55:36.842Z,4.10
2018-11-27T21:58:05.935Z,4.10
2018-11-27T22:00:35.093Z,3.90
2018-11-27T22:03:03.670Z,3.80
2018-11-27T22:05:32.465Z,3.80
2018-11-27T22:08:00.994Z,3.80
2018-11-27T22:10:29.474Z,4.10
2018-11-27T22:12:59.080Z,4.10
2018-11-27T22:15:33.942Z,4.10
2018-11-27T22:18:03.006Z,4.20
2018-11-27T22:20:31.598Z,4.00
2018-11-27T22:23:00.449Z,3.90
2018-11-27T22:25:28.937Z,4.00
2018-11-27T22:27:57.804Z,4.00
2018-11-27T22:30:26.343Z,4.00
2018-11-27T22:32:55.579Z,4.10
2018-11-27T22:35:24.093Z,4.00
2018-11-27T22:37:52.732Z,4.00
2018-11-27T22:40:22.970Z,4.00
2018-11-27T22:42:52.381Z,3.90
2018-11-27T22:45:34.239Z,3.90
2018-11-27T22:48:02.750Z,3.90
2018-11-27T22:50:31.325Z,3.90
2018-11-27T22:53:00.087Z,3.80
2018-11-27T22:55:28.815Z,4.00
2018-11-27T22:57:57.355Z,3.80
2018-11-27T23:00:33.615Z,3.70
2018-11-27T23:03:02.302Z,3.60
2018-11-27T23:05:30.808Z,3.60
2018-11-27T23:07:59.412Z,3.60
2018-11-27T23:10:29.445Z,3.60
2018-11-27T23:12:57.963Z,3.80
2018-11-27T23:15:26.469Z,3.70
2018-11-27T23:17:54.962Z,3.60
2018-11-27T23:20:23.731Z,3.50
2018-11-27T23:22:52.192Z,3.50
2018-11-27T23:25:20.647Z,3.70
2018-11-27T23:27:49.136Z,3.70
2018-11-27T23:30:20.062Z,3.70
2018-11-27T23:32:48.661Z,3.80
2018-11-27T23:35:17.851Z,3.90
2018-11-27T23:37:46.561Z,3.80
2018-11-27T23:40:16.982Z,3.90
2018-11-27T23:42:45.741Z,4.00
2018-11-27T23:45:18.242Z,4.10
2018-11-27T23:47:46.973Z,4.10
2018-11-27T23:50:16.833Z,4.10
2018-11-27T23:52:45.586Z,4.00
2018-11-27T23:55:15.109Z,4.20
2018-11-27T23:57:43.868Z,4.20
